Main page
METAR-TAF:

METAR-TAF

Airports :

Ghedi Air Base

Brescia Ghedi, Italy

latitude: 45-25N, longitude: 010-17E, elevation: 102 m

Current weather observation

The report was made 1 hour and 8 minutes ago, at 07:55 UTC
Wind 2 kt from the North/Northeast
Temperature 7°C
Humidity 70%
Pressure 1023 hPa
Visibility 10 km or more
Scattered clouds at a height of 4600 ft

METAR: LIPL 180755Z 02002KT 9999 SCT046 07/02 Q1023 RMK SCT VIS MIN 9999 WIND THR31 04003KT WIND THR13 03002KT BLU

Time: 10:03 (09:03 UTC)

Forecast

The report was made 4 hours and 3 minutes ago, at 05:00 UTC
Forecast valid from 18 at 06 UTC to 18 at 15 UTC
Wind 7 kt from the East/Northeast
Visibility 10 km or more
Scattered clouds at a height of 5000 ft

TAF: LIPL 180500Z 1806/1815 07007KT 9999 SCT050

Weather observations and forecasts of more than 4000 airports (METAR and TAF reports).

The available stations are represented by yellow and red dots on the map.

Hover mouse over dot to see the name of the station.

Then click to see weather observations and forecasts.

To change the map : click on the green buttons with a black cross to zoom in, on the green button with a dash to zoom out, or on the green arrows for adjacent maps.


METAR-TAF: